createdAt,value
2019-05-18T00:00:46.800Z,13.19
2019-05-18T00:01:46.790Z,13.20
2019-05-18T00:02:46.772Z,13.20
2019-05-18T00:03:46.774Z,13.17
2019-05-18T00:04:46.736Z,13.17
2019-05-18T00:05:46.723Z,13.17
2019-05-18T00:06:46.711Z,13.13
2019-05-18T00:07:46.730Z,13.16
2019-05-18T00:08:46.682Z,13.12
2019-05-18T00:09:46.663Z,13.12
2019-05-18T00:10:46.656Z,13.13
2019-05-18T00:11:46.645Z,13.12
2019-05-18T00:12:46.690Z,13.11
2019-05-18T00:13:46.613Z,13.11
2019-05-18T00:14:46.602Z,13.12
2019-05-18T00:15:46.575Z,13.09
2019-05-18T00:16:46.569Z,13.09
2019-05-18T00:17:46.562Z,13.09
2019-05-18T00:18:46.566Z,13.08
2019-05-18T00:19:46.521Z,13.08
2019-05-18T00:20:46.543Z,13.06
2019-05-18T00:21:46.500Z,13.06
2019-05-18T00:22:46.510Z,13.06
2019-05-18T00:23:46.462Z,13.06
2019-05-18T00:24:46.457Z,13.08
2019-05-18T00:25:46.488Z,13.06
2019-05-18T00:26:46.431Z,13.08
2019-05-18T00:27:46.444Z,13.08
2019-05-18T00:28:46.388Z,13.08
2019-05-18T00:29:46.376Z,13.08
2019-05-18T00:30:46.370Z,13.08
2019-05-18T00:31:46.349Z,13.08
2019-05-18T00:32:46.394Z,13.09
2019-05-18T00:33:46.329Z,13.08
2019-05-18T00:34:46.313Z,13.08
2019-05-18T00:35:46.299Z,13.09
2019-05-18T00:36:46.277Z,13.09
2019-05-18T00:37:46.263Z,13.08
2019-05-18T00:38:48.307Z,13.11
2019-05-18T00:39:46.246Z,13.09
2019-05-18T00:40:46.235Z,13.11
2019-05-18T00:41:46.205Z,13.09
2019-05-18T00:42:46.215Z,13.09
2019-05-18T00:43:46.183Z,13.11
2019-05-18T00:44:46.177Z,13.11
2019-05-18T00:45:46.150Z,13.09
2019-05-18T00:46:46.153Z,13.09
2019-05-18T00:47:46.151Z,13.11
2019-05-18T00:48:46.146Z,13.09
2019-05-18T00:49:46.099Z,13.09
2019-05-18T00:50:46.079Z,13.11
2019-05-18T00:51:46.095Z,13.08
2019-05-18T00:52:46.087Z,13.09
2019-05-18T00:53:46.063Z,13.06
2019-05-18T00:54:46.028Z,13.06
2019-05-18T00:55:46.018Z,13.06
2019-05-18T00:56:46.002Z,13.03
2019-05-18T00:57:45.985Z,13.01
2019-05-18T00:58:46.000Z,13.01
2019-05-18T00:59:45.962Z,13.02
2019-05-18T01:00:45.931Z,13.03
2019-05-18T01:01:45.924Z,13.05
2019-05-18T01:02:45.904Z,13.05
2019-05-18T01:03:46.022Z,13.06
2019-05-18T01:04:45.874Z,13.06
2019-05-18T01:05:45.861Z,13.03
2019-05-18T01:06:45.839Z,13.01
2019-05-18T01:07:45.819Z,13.01
2019-05-18T01:08:45.814Z,13.02
2019-05-18T01:09:45.861Z,13.01
2019-05-18T01:10:45.795Z,13.01
2019-05-18T01:11:45.773Z,13.01
2019-05-18T01:12:45.754Z,13.02
2019-05-18T01:13:45.739Z,13.05
2019-05-18T01:14:45.737Z,13.08
2019-05-18T01:15:45.751Z,13.08
2019-05-18T01:16:45.714Z,13.09
2019-05-18T01:17:56.880Z,13.09
2019-05-18T01:18:45.676Z,13.11
2019-05-18T01:19:45.667Z,13.11
2019-05-18T01:20:45.683Z,13.11
2019-05-18T01:21:45.640Z,13.12
2019-05-18T01:22:45.626Z,13.13
2019-05-18T01:23:45.597Z,13.13
2019-05-18T01:24:45.581Z,13.13
2019-05-18T01:25:45.605Z,13.13
2019-05-18T01:26:45.564Z,13.12
2019-05-18T01:27:45.543Z,13.11
2019-05-18T01:28:45.531Z,13.11
2019-05-18T01:29:45.508Z,13.09
2019-05-18T01:30:45.564Z,13.09
2019-05-18T01:31:45.480Z,13.09
2019-05-18T01:32:45.471Z,13.08
2019-05-18T01:33:45.448Z,13.06
2019-05-18T01:34:45.471Z,13.06
2019-05-18T01:35:45.422Z,13.05
2019-05-18T01:36:45.428Z,13.05
2019-05-18T01:37:45.392Z,13.06
2019-05-18T01:38:45.376Z,13.03
2019-05-18T01:39:45.363Z,13.05
2019-05-18T01:40:45.345Z,13.03
2019-05-18T01:41:45.356Z,13.03
2019-05-18T01:42:45.326Z,13.03
2019-05-18T01:43:45.311Z,13.02
2019-05-18T01:44:45.291Z,13.02
2019-05-18T01:45:45.277Z,13.01
2019-05-18T01:46:45.301Z,12.99
2019-05-18T01:47:45.259Z,13.01
2019-05-18T01:48:45.237Z,12.98
2019-05-18T01:49:45.231Z,12.98
2019-05-18T01:50:45.207Z,12.98
2019-05-18T01:51:45.201Z,12.95
2019-05-18T01:52:45.180Z,12.95
2019-05-18T01:53:45.163Z,12.94
2019-05-18T01:54:45.154Z,12.94
2019-05-18T01:55:45.177Z,12.93
2019-05-18T01:56:45.253Z,12.93
2019-05-18T01:57:45.107Z,12.91
2019-05-18T01:58:45.099Z,12.93
2019-05-18T01:59:45.083Z,12.90
2019-05-18T02:00:45.064Z,12.88
2019-05-18T02:01:45.053Z,12.87
2019-05-18T02:02:45.167Z,12.87
2019-05-18T02:03:45.018Z,12.86
2019-05-18T02:04:45.001Z,12.84
2019-05-18T02:05:44.988Z,12.81
2019-05-18T02:06:44.980Z,12.81
2019-05-18T02:07:44.975Z,12.78
2019-05-18T02:08:44.972Z,12.75
2019-05-18T02:09:44.947Z,12.75
2019-05-18T02:10:44.914Z,12.73
2019-05-18T02:11:44.893Z,12.70
2019-05-18T02:12:44.879Z,12.69
2019-05-18T02:13:44.898Z,12.68
2019-05-18T02:14:44.864Z,12.66
2019-05-18T02:15:44.850Z,12.63
2019-05-18T02:16:44.825Z,12.65
2019-05-18T02:17:44.822Z,12.62
2019-05-18T02:18:44.871Z,12.62
2019-05-18T02:19:44.784Z,12.62
2019-05-18T02:20:44.777Z,12.62
2019-05-18T02:21:44.754Z,12.62
2019-05-18T02:22:44.739Z,12.61
2019-05-18T02:23:44.727Z,12.63
2019-05-18T02:24:44.723Z,12.61
2019-05-18T02:25:44.695Z,12.58
2019-05-18T02:26:44.688Z,12.58
2019-05-18T02:27:44.669Z,12.61
2019-05-18T02:28:44.647Z,12.62
2019-05-18T02:29:44.662Z,12.62
2019-05-18T02:30:44.623Z,12.63
2019-05-18T02:31:44.617Z,12.65
2019-05-18T02:32:44.587Z,12.65
2019-05-18T02:33:44.577Z,12.65
2019-05-18T02:34:44.591Z,12.62
2019-05-18T02:35:44.546Z,12.61
2019-05-18T02:36:44.601Z,12.61
2019-05-18T02:37:44.524Z,12.58
2019-05-18T02:38:44.544Z,12.58
2019-05-18T02:39:44.490Z,12.57
2019-05-18T02:40:44.479Z,12.61
2019-05-18T02:41:44.476Z,12.58
2019-05-18T02:42:44.453Z,12.57
2019-05-18T02:43:44.457Z,12.54
2019-05-18T02:44:44.414Z,12.53
2019-05-18T02:45:44.395Z,12.53
2019-05-18T02:46:44.392Z,12.48
2019-05-18T02:47:44.384Z,12.47
2019-05-18T02:48:49.548Z,12.43
2019-05-18T02:49:44.336Z,12.43
2019-05-18T02:50:44.346Z,12.43
2019-05-18T02:51:44.343Z,12.40
2019-05-18T02:52:44.291Z,12.39
2019-05-18T02:53:44.319Z,12.40
2019-05-18T02:54:44.273Z,12.39
2019-05-18T02:55:44.263Z,12.40
2019-05-18T02:56:44.231Z,12.40
2019-05-18T02:57:44.226Z,12.40
2019-05-18T02:58:44.235Z,12.40
2019-05-18T02:59:44.189Z,12.40
2019-05-18T03:00:44.185Z,12.43
2019-05-18T03:01:44.166Z,12.43
2019-05-18T03:02:44.144Z,12.43
2019-05-18T03:03:44.178Z,12.44
2019-05-18T03:04:44.121Z,12.40
2019-05-18T03:05:44.096Z,12.40
2019-05-18T03:06:44.083Z,12.43
2019-05-18T03:07:44.095Z,12.40
2019-05-18T03:08:44.132Z,12.40
2019-05-18T03:09:44.044Z,12.37
2019-05-18T03:10:44.031Z,12.36
2019-05-18T03:11:44.011Z,12.36
2019-05-18T03:12:43.998Z,12.37
2019-05-18T03:13:44.011Z,12.39
2019-05-18T03:14:44.012Z,12.37
2019-05-18T03:15:43.995Z,12.36
2019-05-18T03:16:43.933Z,12.35
2019-05-18T03:17:43.917Z,12.32
2019-05-18T03:18:43.915Z,12.29
2019-05-18T03:19:43.902Z,12.26
2019-05-18T03:20:43.917Z,12.26
2019-05-18T03:21:43.862Z,12.26
2019-05-18T03:22:43.843Z,12.26
2019-05-18T03:23:43.828Z,12.25
2019-05-18T03:24:43.848Z,12.26
2019-05-18T03:25:43.832Z,12.23
2019-05-18T03:26:43.794Z,12.25
2019-05-18T03:27:43.779Z,12.23
2019-05-18T03:28:43.759Z,12.21
2019-05-18T03:29:43.740Z,12.23
2019-05-18T03:30:43.771Z,12.21
2019-05-18T03:31:43.739Z,12.20
2019-05-18T03:32:43.708Z,12.20
2019-05-18T03:33:43.687Z,12.18
2019-05-18T03:34:43.668Z,12.18
2019-05-18T03:35:43.715Z,12.18
2019-05-18T03:36:43.650Z,12.18
2019-05-18T03:37:43.626Z,12.18
2019-05-18T03:38:43.622Z,12.18
2019-05-18T03:39:43.590Z,12.17
2019-05-18T03:40:43.573Z,12.17
2019-05-18T03:41:43.581Z,12.15
2019-05-18T03:42:43.551Z,12.14
2019-05-18T03:43:43.538Z,12.14
2019-05-18T03:44:43.545Z,12.14
2019-05-18T03:45:43.508Z,12.14
2019-05-18T03:46:43.499Z,12.14
2019-05-18T03:47:43.491Z,12.14
2019-05-18T03:48:43.455Z,12.14
2019-05-18T03:49:43.445Z,12.11
2019-05-18T03:50:43.435Z,12.10
2019-05-18T03:51:43.442Z,12.07
2019-05-18T03:52:43.393Z,12.00
2019-05-18T03:53:43.385Z,11.99
2019-05-18T03:54:43.368Z,11.97
2019-05-18T03:55:43.344Z,11.96
2019-05-18T03:56:43.370Z,11.95
2019-05-18T03:57:43.354Z,11.93
2019-05-18T03:58:43.313Z,11.95
2019-05-18T03:59:43.294Z,11.93
2019-05-18T04:00:43.283Z,11.96
2019-05-18T04:01:43.263Z,11.95
2019-05-18T04:02:43.396Z,11.91
2019-05-18T04:03:43.228Z,11.91
2019-05-18T04:04:43.230Z,11.86
2019-05-18T04:05:43.207Z,11.85
2019-05-18T04:06:43.199Z,11.88
2019-05-18T04:07:43.174Z,11.86
2019-05-18T04:08:43.218Z,11.85
2019-05-18T04:09:43.151Z,11.83
2019-05-18T04:10:43.130Z,11.85
2019-05-18T04:11:43.113Z,11.85
2019-05-18T04:12:43.100Z,11.86
2019-05-18T04:13:43.107Z,11.86
2019-05-18T04:14:43.079Z,11.88
2019-05-18T04:15:43.051Z,11.88
2019-05-18T04:16:43.086Z,11.88
2019-05-18T04:17:43.024Z,11.91
2019-05-18T04:18:43.014Z,11.91
2019-05-18T04:19:47.018Z,11.91
2019-05-18T04:20:42.959Z,11.91
2019-05-18T04:21:42.944Z,11.93
2019-05-18T04:22:42.935Z,11.95
2019-05-18T04:23:42.922Z,11.95
2019-05-18T04:24:42.931Z,11.93
2019-05-18T04:25:43.887Z,11.95
2019-05-18T04:26:42.878Z,11.93
2019-05-18T04:27:42.860Z,11.91
2019-05-18T04:28:42.908Z,11.91
2019-05-18T04:29:42.831Z,11.91
2019-05-18T04:30:42.825Z,11.93
2019-05-18T04:31:42.806Z,11.96
2019-05-18T04:32:42.792Z,11.96
2019-05-18T04:33:42.771Z,11.97
2019-05-18T04:34:42.800Z,11.99
2019-05-18T04:35:42.737Z,11.99
2019-05-18T04:36:42.733Z,12.00
2019-05-18T04:37:42.708Z,12.00
2019-05-18T04:38:42.712Z,12.00
2019-05-18T04:39:42.709Z,11.99
2019-05-18T04:40:42.670Z,12.00
2019-05-18T04:41:42.652Z,12.00
2019-05-18T04:42:42.640Z,11.99
2019-05-18T04:43:42.650Z,11.99
2019-05-18T04:44:42.603Z,11.99
2019-05-18T04:45:42.608Z,11.99
2019-05-18T04:46:42.583Z,11.99
2019-05-18T04:47:42.571Z,11.97
2019-05-18T04:48:42.580Z,11.95
2019-05-18T04:49:42.543Z,11.95
2019-05-18T04:50:42.508Z,11.95
2019-05-18T04:51:42.503Z,11.97
2019-05-18T04:52:42.492Z,12.00
2019-05-18T04:53:42.497Z,12.02
2019-05-18T04:54:42.455Z,12.07
2019-05-18T04:55:42.434Z,12.08
2019-05-18T04:56:43.185Z,12.11
2019-05-18T04:57:42.411Z,12.12
2019-05-18T04:58:42.399Z,12.14
2019-05-18T04:59:42.385Z,12.14
2019-05-18T05:00:42.359Z,12.17
2019-05-18T05:01:42.336Z,12.18
2019-05-18T05:02:42.329Z,12.20
2019-05-18T05:03:42.465Z,12.23
2019-05-18T05:04:42.344Z,12.25
2019-05-18T05:05:42.286Z,12.25
2019-05-18T05:06:42.290Z,12.25
2019-05-18T05:07:42.254Z,12.28
2019-05-18T05:08:42.231Z,12.29
2019-05-18T05:09:42.251Z,12.32
2019-05-18T05:10:42.233Z,12.33
2019-05-18T05:11:42.190Z,12.33
2019-05-18T05:12:42.184Z,12.35
2019-05-18T05:13:42.167Z,12.36
2019-05-18T05:14:42.299Z,12.40
2019-05-18T05:15:42.129Z,12.40
2019-05-18T05:16:42.121Z,12.40
2019-05-18T05:17:42.135Z,12.44
2019-05-18T05:18:42.077Z,12.44
2019-05-18T05:19:42.066Z,12.47
2019-05-18T05:20:42.087Z,12.50
2019-05-18T05:21:42.033Z,12.53
2019-05-18T05:22:42.018Z,12.53
2019-05-18T05:23:42.011Z,12.54
2019-05-18T05:24:41.998Z,12.57
2019-05-18T05:25:42.002Z,12.61
2019-05-18T05:26:41.964Z,12.62
2019-05-18T05:27:41.951Z,12.63
2019-05-18T05:28:41.956Z,12.65
2019-05-18T05:29:41.921Z,12.68
2019-05-18T05:30:41.934Z,12.69
2019-05-18T05:31:41.903Z,12.70
2019-05-18T05:32:41.875Z,12.72
2019-05-18T05:33:41.873Z,12.75
2019-05-18T05:34:41.877Z,12.78
2019-05-18T05:35:41.847Z,12.80
2019-05-18T05:36:41.818Z,12.83
2019-05-18T05:37:41.813Z,12.86
2019-05-18T05:38:41.785Z,12.87
2019-05-18T05:39:41.793Z,12.90
2019-05-18T05:40:41.762Z,12.93
2019-05-18T05:41:41.738Z,12.94
2019-05-18T05:42:41.733Z,12.98
2019-05-18T05:43:41.715Z,12.99
2019-05-18T05:44:41.731Z,13.02
2019-05-18T05:45:41.684Z,13.09
2019-05-18T05:46:41.676Z,13.12
2019-05-18T05:47:41.646Z,13.16
2019-05-18T05:48:41.640Z,13.13
2019-05-18T05:49:41.663Z,13.13
2019-05-18T05:50:41.605Z,13.17
2019-05-18T05:51:41.592Z,13.19
2019-05-18T05:52:41.696Z,13.19
2019-05-18T05:53:41.567Z,13.23
2019-05-18T05:54:41.559Z,13.26
2019-05-18T05:55:41.667Z,13.26
2019-05-18T05:56:41.525Z,13.28
2019-05-18T05:57:41.522Z,13.30
2019-05-18T05:58:41.501Z,13.36
2019-05-18T05:59:41.485Z,13.37
2019-05-18T06:00:41.467Z,13.39
2019-05-18T06:01:41.452Z,13.40
2019-05-18T06:02:41.433Z,13.45
2019-05-18T06:03:41.421Z,13.47
2019-05-18T06:04:41.411Z,13.47
2019-05-18T06:05:41.396Z,13.50
2019-05-18T06:06:41.408Z,13.54
2019-05-18T06:07:41.368Z,13.57
2019-05-18T06:08:41.343Z,13.58
2019-05-18T06:09:41.323Z,13.62
2019-05-18T06:10:41.315Z,13.64
2019-05-18T06:11:41.360Z,13.67
2019-05-18T06:12:41.297Z,13.67
2019-05-18T06:13:41.285Z,13.70
2019-05-18T06:14:41.257Z,13.75
2019-05-18T06:15:41.247Z,13.78
2019-05-18T06:16:41.236Z,13.78
2019-05-18T06:17:41.246Z,13.79
2019-05-18T06:18:41.339Z,13.82
2019-05-18T06:19:41.199Z,13.85
2019-05-18T06:20:50.936Z,13.93
2019-05-18T06:21:41.158Z,13.97
2019-05-18T06:22:41.144Z,14.00
2019-05-18T06:23:41.133Z,13.98
2019-05-18T06:24:41.170Z,14.00
2019-05-18T06:25:41.101Z,14.03
2019-05-18T06:26:41.094Z,14.03
2019-05-18T06:27:41.100Z,14.03
2019-05-18T06:28:41.054Z,14.05
2019-05-18T06:29:41.190Z,14.08
2019-05-18T06:30:41.033Z,14.13
2019-05-18T06:31:41.013Z,14.15
2019-05-18T06:32:41.003Z,14.16
2019-05-18T06:33:40.992Z,14.22
2019-05-18T06:34:40.976Z,14.25
2019-05-18T06:35:40.965Z,14.28
2019-05-18T06:36:40.949Z,14.31
2019-05-18T06:37:40.925Z,14.34
2019-05-18T06:38:40.922Z,14.38
2019-05-18T06:39:40.964Z,14.44
2019-05-18T06:40:40.888Z,14.49
2019-05-18T06:41:40.898Z,14.53
2019-05-18T06:42:40.861Z,14.59
2019-05-18T06:43:40.862Z,14.62
2019-05-18T06:44:40.830Z,14.67
2019-05-18T06:45:40.852Z,14.71
2019-05-18T06:46:40.815Z,14.77
2019-05-18T06:47:40.802Z,14.79
2019-05-18T06:48:40.776Z,14.85
2019-05-18T06:49:40.800Z,14.89
2019-05-18T06:50:40.756Z,14.89
2019-05-18T06:51:40.773Z,14.94
2019-05-18T06:52:40.737Z,14.99
2019-05-18T06:53:40.723Z,15.04
2019-05-18T06:54:40.737Z,15.07
2019-05-18T06:55:40.691Z,15.07
2019-05-18T06:56:40.714Z,15.07
2019-05-18T06:57:40.653Z,15.08
2019-05-18T06:58:40.645Z,15.11
2019-05-18T06:59:40.634Z,15.14
2019-05-18T07:00:40.620Z,15.19
2019-05-18T07:01:40.638Z,15.25
2019-05-18T07:02:40.585Z,15.25
2019-05-18T07:03:40.579Z,15.29
2019-05-18T07:04:40.569Z,15.33
2019-05-18T07:05:40.552Z,15.33
2019-05-18T07:06:40.540Z,15.36
2019-05-18T07:07:40.544Z,15.41
2019-05-18T07:08:40.644Z,15.47
2019-05-18T07:09:40.510Z,15.48
2019-05-18T07:10:40.482Z,15.47
2019-05-18T07:11:40.477Z,15.47
2019-05-18T07:12:40.483Z,15.47
2019-05-18T07:13:41.283Z,15.45
2019-05-18T07:14:40.455Z,15.45
2019-05-18T07:15:40.430Z,15.47
2019-05-18T07:16:40.407Z,15.47
2019-05-18T07:17:40.389Z,15.51
2019-05-18T07:18:40.407Z,15.52
2019-05-18T07:19:40.398Z,15.54
2019-05-18T07:20:40.356Z,15.54
2019-05-18T07:21:40.337Z,15.54
2019-05-18T07:22:40.340Z,15.60
2019-05-18T07:23:40.338Z,15.62
2019-05-18T07:24:40.303Z,15.70
2019-05-18T07:25:40.294Z,15.72
2019-05-18T07:26:40.278Z,15.73
2019-05-18T07:27:40.260Z,15.73
2019-05-18T07:28:40.269Z,15.75
2019-05-18T07:29:40.238Z,15.76
2019-05-18T07:30:40.353Z,15.80
2019-05-18T07:31:40.210Z,15.84
2019-05-18T07:32:40.196Z,15.85
2019-05-18T07:33:40.179Z,15.84
2019-05-18T07:34:40.173Z,15.90
2019-05-18T07:35:40.155Z,15.94
2019-05-18T07:36:40.170Z,15.99
2019-05-18T07:37:40.133Z,16.03
2019-05-18T07:38:40.147Z,16.08
2019-05-18T07:39:40.103Z,16.08
2019-05-18T07:40:40.096Z,16.08
2019-05-18T07:41:46.854Z,16.09
2019-05-18T07:42:40.117Z,16.16
2019-05-18T07:43:40.067Z,16.21
2019-05-18T07:44:40.045Z,16.26
2019-05-18T07:45:40.037Z,16.31
2019-05-18T07:46:40.062Z,16.32
2019-05-18T07:47:40.002Z,16.34
2019-05-18T07:48:39.990Z,16.34
2019-05-18T07:49:39.977Z,16.36
2019-05-18T07:50:39.969Z,16.37
2019-05-18T07:51:39.974Z,16.39
2019-05-18T07:52:39.949Z,16.40
2019-05-18T07:53:41.326Z,16.49
2019-05-18T07:54:39.925Z,16.50
2019-05-18T07:55:39.915Z,16.58
2019-05-18T07:56:39.890Z,16.62
2019-05-18T07:57:39.886Z,16.65
2019-05-18T07:58:39.884Z,16.69
2019-05-18T07:59:39.868Z,16.72
2019-05-18T08:00:39.885Z,16.74
2019-05-18T08:01:39.837Z,16.76
2019-05-18T08:02:39.828Z,16.82
2019-05-18T08:03:39.839Z,16.84
2019-05-18T08:04:39.937Z,16.84
2019-05-18T08:05:39.907Z,16.91
2019-05-18T08:06:39.768Z,16.97
2019-05-18T08:07:39.765Z,16.99
2019-05-18T08:08:39.774Z,17.04
2019-05-18T08:09:43.812Z,17.05
2019-05-18T08:10:43.622Z,17.10
2019-05-18T08:11:39.727Z,17.07
2019-05-18T08:12:39.705Z,17.09
2019-05-18T08:13:39.693Z,17.12
2019-05-18T08:14:39.715Z,17.12
2019-05-18T08:15:39.693Z,17.19
2019-05-18T08:16:39.658Z,17.23
2019-05-18T08:17:39.647Z,17.28
2019-05-18T08:18:39.639Z,17.31
2019-05-18T08:19:39.629Z,17.34
2019-05-18T08:20:39.664Z,17.39
2019-05-18T08:21:52.273Z,17.44
2019-05-18T08:22:39.586Z,17.47
2019-05-18T08:23:39.590Z,17.52
2019-05-18T08:24:39.568Z,17.53
2019-05-18T08:25:39.590Z,17.50
2019-05-18T08:26:39.546Z,17.52
2019-05-18T08:27:39.530Z,17.54
2019-05-18T08:28:39.515Z,17.59
2019-05-18T08:29:39.511Z,17.59
2019-05-18T08:30:39.549Z,17.59
2019-05-18T08:31:39.486Z,17.57
2019-05-18T08:32:39.472Z,17.60
2019-05-18T08:33:39.470Z,17.63
2019-05-18T08:34:39.453Z,17.63
2019-05-18T08:35:39.434Z,17.66
2019-05-18T08:36:39.457Z,17.71
2019-05-18T08:37:39.455Z,17.79
2019-05-18T08:38:40.333Z,17.88
2019-05-18T08:39:39.412Z,17.95
2019-05-18T08:40:39.387Z,18.05
2019-05-18T08:41:39.371Z,18.16
2019-05-18T08:42:39.375Z,18.24
2019-05-18T08:43:39.344Z,18.27
2019-05-18T08:44:39.348Z,18.31
2019-05-18T08:45:39.394Z,18.43
2019-05-18T08:46:39.318Z,18.53
2019-05-18T08:47:39.304Z,18.81
2019-05-18T08:48:39.289Z,19.08
2019-05-18T08:49:39.281Z,19.53
2019-05-18T08:50:39.265Z,19.87
2019-05-18T08:51:39.297Z,20.10
2019-05-18T08:52:39.249Z,20.08
2019-05-18T08:53:39.237Z,20.29
2019-05-18T08:54:39.233Z,20.63
2019-05-18T08:55:39.217Z,21.08
2019-05-18T08:56:39.236Z,21.63
2019-05-18T08:57:39.234Z,22.18
2019-05-18T08:58:40.828Z,22.74
2019-05-18T08:59:40.003Z,23.11
2019-05-18T09:00:39.186Z,23.49
2019-05-18T09:01:39.829Z,23.69
2019-05-18T09:02:39.205Z,23.86
2019-05-18T09:03:39.348Z,24.00
2019-05-18T09:04:39.147Z,24.18
2019-05-18T09:05:39.130Z,24.38
2019-05-18T09:06:39.132Z,24.46
2019-05-18T09:07:39.140Z,24.62
2019-05-18T09:08:39.143Z,24.68
2019-05-18T09:09:39.140Z,24.62
2019-05-18T09:10:39.106Z,24.69
2019-05-18T09:11:39.091Z,24.88
2019-05-18T09:12:39.087Z,24.97
2019-05-18T09:13:39.756Z,25.14
2019-05-18T09:14:42.744Z,25.31
2019-05-18T09:15:39.157Z,25.67
2019-05-18T09:16:39.885Z,26.13
2019-05-18T09:17:39.070Z,26.59
2019-05-18T09:18:39.673Z,27.15
2019-05-18T09:19:39.073Z,27.57
2019-05-18T09:20:39.042Z,27.98
2019-05-18T09:21:39.040Z,28.27
2019-05-18T09:22:39.026Z,28.55
2019-05-18T09:23:39.019Z,28.82
2019-05-18T09:24:39.059Z,29.09
2019-05-18T09:25:39.016Z,29.31
2019-05-18T09:26:39.012Z,29.52
2019-05-18T09:27:39.016Z,29.68
2019-05-18T09:28:38.997Z,29.84
2019-05-18T09:29:38.987Z,30.21
2019-05-18T09:30:41.268Z,30.56
2019-05-18T09:31:39.007Z,30.78
2019-05-18T09:32:38.979Z,30.92
2019-05-18T09:33:38.977Z,30.76
2019-05-18T09:34:38.980Z,30.85
2019-05-18T09:35:38.984Z,31.10
2019-05-18T09:36:39.033Z,31.29
2019-05-18T09:37:38.981Z,31.54
2019-05-18T09:38:39.106Z,31.81
2019-05-18T09:39:38.994Z,32.00
2019-05-18T09:40:38.964Z,31.98
2019-05-18T09:41:38.970Z,32.02
2019-05-18T09:42:38.978Z,32.07
2019-05-18T09:43:38.947Z,32.01
2019-05-18T09:44:38.987Z,31.85
2019-05-18T09:45:38.964Z,31.63
2019-05-18T09:46:39.014Z,31.55
2019-05-18T09:47:38.949Z,31.63
2019-05-18T09:48:38.952Z,31.70
2019-05-18T09:49:38.954Z,31.74
2019-05-18T09:50:39.165Z,31.70
2019-05-18T09:51:38.950Z,31.67
2019-05-18T09:52:46.182Z,31.63
2019-05-18T09:53:50.679Z,31.59
2019-05-18T09:54:38.985Z,31.54
2019-05-18T09:55:39.004Z,31.54
2019-05-18T09:56:38.940Z,31.55
2019-05-18T09:57:39.878Z,31.47
2019-05-18T09:58:38.972Z,31.47
2019-05-18T09:59:39.899Z,31.36
2019-05-18T10:00:39.294Z,31.36
2019-05-18T10:01:38.967Z,31.41
2019-05-18T10:02:38.950Z,31.10
2019-05-18T10:03:38.959Z,31.17
2019-05-18T10:04:38.940Z,31.26
2019-05-18T10:05:38.961Z,31.35
2019-05-18T10:06:38.963Z,31.39
2019-05-18T10:07:38.958Z,31.47
2019-05-18T10:08:38.958Z,31.59
2019-05-18T10:09:39.758Z,31.72
2019-05-18T10:10:38.987Z,31.86
2019-05-18T10:11:39.069Z,31.95
2019-05-18T10:12:38.971Z,32.09
2019-05-18T10:13:38.996Z,32.24
2019-05-18T10:14:38.971Z,32.34
2019-05-18T10:15:38.974Z,32.44
2019-05-18T10:16:38.997Z,32.37
2019-05-18T10:17:38.987Z,32.46
2019-05-18T10:18:38.978Z,32.59
2019-05-18T10:19:38.979Z,32.79
2019-05-18T10:20:38.972Z,32.94
2019-05-18T10:21:39.139Z,33.13
2019-05-18T10:22:53.289Z,33.20
2019-05-18T10:23:40.551Z,33.33
2019-05-18T10:24:39.901Z,33.39
2019-05-18T10:25:39.006Z,33.50
2019-05-18T10:26:39.003Z,33.51
2019-05-18T10:27:39.030Z,33.65
2019-05-18T10:28:39.037Z,33.72
2019-05-18T10:29:39.002Z,33.81
2019-05-18T10:30:39.027Z,33.94
2019-05-18T10:31:39.022Z,34.00
2019-05-18T10:32:39.016Z,34.16
2019-05-18T10:33:39.064Z,34.24
2019-05-18T10:34:39.031Z,34.38
2019-05-18T10:35:39.030Z,34.50
2019-05-18T10:36:39.048Z,34.75
2019-05-18T10:37:39.060Z,34.85
2019-05-18T10:38:39.081Z,33.91
2019-05-18T10:39:39.055Z,33.57
2019-05-18T10:40:39.062Z,33.13
2019-05-18T10:41:39.056Z,32.71
2019-05-18T10:42:39.074Z,32.39
2019-05-18T10:43:39.082Z,32.09
2019-05-18T10:44:39.062Z,31.98
2019-05-18T10:45:39.059Z,32.01
2019-05-18T10:46:39.068Z,31.50
2019-05-18T10:47:39.072Z,31.25
2019-05-18T10:48:39.209Z,31.15
2019-05-18T10:49:39.081Z,31.28
2019-05-18T10:50:39.072Z,31.39
2019-05-18T10:51:39.087Z,31.51
2019-05-18T10:52:39.082Z,31.63
2019-05-18T10:53:39.086Z,31.62
2019-05-18T10:54:39.116Z,31.48
2019-05-18T10:55:39.105Z,31.39
2019-05-18T10:56:39.113Z,31.13
2019-05-18T10:57:39.099Z,30.71
2019-05-18T10:58:39.100Z,30.43
2019-05-18T10:59:39.089Z,30.11
2019-05-18T11:00:39.096Z,29.73
2019-05-18T11:01:39.099Z,28.84
2019-05-18T11:02:39.101Z,28.50
2019-05-18T11:03:39.095Z,28.31
2019-05-18T11:04:39.138Z,28.12
2019-05-18T11:05:39.106Z,27.93
2019-05-18T11:06:39.102Z,27.73
2019-05-18T11:07:39.104Z,27.44
2019-05-18T11:08:39.092Z,27.18
2019-05-18T11:09:39.090Z,26.93
2019-05-18T11:10:39.176Z,26.86
2019-05-18T11:11:39.090Z,26.93
2019-05-18T11:12:39.082Z,27.16
2019-05-18T11:13:39.083Z,27.73
2019-05-18T11:14:39.086Z,28.50
2019-05-18T11:15:39.121Z,29.49
2019-05-18T11:16:39.145Z,30.08
2019-05-18T11:17:39.082Z,30.40
2019-05-18T11:18:39.086Z,30.63
2019-05-18T11:19:39.070Z,30.61
2019-05-18T11:20:39.079Z,30.93
2019-05-18T11:21:39.080Z,31.74
2019-05-18T11:22:39.124Z,32.48
2019-05-18T11:23:44.152Z,33.01
2019-05-18T11:24:39.086Z,33.65
2019-05-18T11:25:39.094Z,34.28
2019-05-18T11:26:39.946Z,34.66
2019-05-18T11:27:39.112Z,34.91
2019-05-18T11:28:39.091Z,35.26
2019-05-18T11:29:39.098Z,35.63
2019-05-18T11:30:39.102Z,35.91
2019-05-18T11:31:39.105Z,36.14
2019-05-18T11:32:39.139Z,36.45
2019-05-18T11:33:39.127Z,36.69
2019-05-18T11:34:39.106Z,36.67
2019-05-18T11:35:39.116Z,36.70
2019-05-18T11:36:39.114Z,36.65
2019-05-18T11:37:39.191Z,36.92
2019-05-18T11:38:39.123Z,36.43
2019-05-18T11:39:39.119Z,36.20
2019-05-18T11:40:39.121Z,36.59
2019-05-18T11:41:39.133Z,36.76
2019-05-18T11:42:39.147Z,37.15
2019-05-18T11:43:39.172Z,37.58
2019-05-18T11:44:39.191Z,37.75
2019-05-18T11:45:39.149Z,38.00
2019-05-18T11:46:39.151Z,38.19
2019-05-18T11:47:39.175Z,38.22
2019-05-18T11:48:39.312Z,38.23
2019-05-18T11:49:39.167Z,38.31
2019-05-18T11:50:39.179Z,38.50
2019-05-18T11:51:39.181Z,38.72
2019-05-18T11:52:39.190Z,39.04
2019-05-18T11:53:39.296Z,39.05
2019-05-18T11:54:39.229Z,39.11
2019-05-18T11:55:39.230Z,38.48
2019-05-18T11:56:39.216Z,37.85
2019-05-18T11:57:39.221Z,37.85
2019-05-18T11:58:39.259Z,37.43
2019-05-18T11:59:39.261Z,37.64
2019-05-18T12:00:39.236Z,38.00
2019-05-18T12:01:39.252Z,38.12
2019-05-18T12:02:41.965Z,38.09
2019-05-18T12:03:39.302Z,38.02
2019-05-18T12:04:39.293Z,38.04
2019-05-18T12:05:39.307Z,38.05
2019-05-18T12:06:39.301Z,37.92
2019-05-18T12:07:39.290Z,37.76
2019-05-18T12:08:39.291Z,37.44
2019-05-18T12:09:39.291Z,36.05
2019-05-18T12:10:39.304Z,34.75
2019-05-18T12:11:39.310Z,33.87
2019-05-18T12:12:39.329Z,32.56
2019-05-18T12:13:39.326Z,31.97
2019-05-18T12:14:39.323Z,31.42
2019-05-18T12:15:39.507Z,30.88
2019-05-18T12:16:39.335Z,30.33
2019-05-18T12:17:39.344Z,29.92
2019-05-18T12:18:39.469Z,29.61
2019-05-18T12:19:39.370Z,29.30
2019-05-18T12:20:39.332Z,28.65
2019-05-18T12:21:39.359Z,28.52
2019-05-18T12:22:41.005Z,28.82
2019-05-18T12:23:39.389Z,29.18
2019-05-18T12:24:39.352Z,29.00
2019-05-18T12:25:40.001Z,29.16
2019-05-18T12:26:39.343Z,29.10
2019-05-18T12:27:39.822Z,28.94
2019-05-18T12:28:39.340Z,28.83
2019-05-18T12:29:39.448Z,28.71
2019-05-18T12:30:39.366Z,28.56
2019-05-18T12:31:39.394Z,28.35
2019-05-18T12:32:39.348Z,28.33
2019-05-18T12:33:39.342Z,28.45
2019-05-18T12:34:39.985Z,28.68
2019-05-18T12:35:39.342Z,28.87
2019-05-18T12:36:39.341Z,28.94
2019-05-18T12:37:39.531Z,28.92
2019-05-18T12:38:40.006Z,28.86
2019-05-18T12:39:40.001Z,28.77
2019-05-18T12:40:39.344Z,28.56
2019-05-18T12:41:39.342Z,28.41
2019-05-18T12:42:39.719Z,28.45
2019-05-18T12:43:39.479Z,28.49
2019-05-18T12:44:39.346Z,28.52
2019-05-18T12:45:39.342Z,28.53
2019-05-18T12:46:39.324Z,28.16
2019-05-18T12:47:39.351Z,27.76
2019-05-18T12:48:39.363Z,27.03
2019-05-18T12:49:39.370Z,26.73
2019-05-18T12:50:39.325Z,26.34
2019-05-18T12:51:39.328Z,26.03
2019-05-18T12:52:39.323Z,26.16